Airfield :
LOGIN :

Register | Disclaimer

   EN    FR    IT 

 










Legend :    VFR   Marginal VFR   IFR   Intensive IFR   Very Intensive IFR
Visi :
Ceiling :
>= 8 km
>= 3000ft
5 to 8 km
1000 to 3000 ft
1500m to 5 km
500 to 1000 ft
800 to 1500m
200 to 500 ft
< 800m
< 200 ft
Symbols :   Thunderstorms  Fog  Heavy snow  Heavy precipitations  Wind > 20 kt
SIGMETs :     Misc.  Thunderstorms  Icing  Turbulence  Mountain Waves  Volcanic Ashes






- Airport Elevation : 74 ft
- IATA code : MRS


LFML - Marseille / Marignane

CURRENT METAR :
  • 300430Z AUTO 14003KT 9999 NSC 02/01 Q1016 NOSIG

EXPIRED METARs :
  • 300400Z AUTO 17003KT 9999 NSC 02/01 Q1016 NOSIG
  • 300330Z AUTO 14003KT 9999 NSC 02/02 Q1015 NOSIG
  • 300230Z AUTO 14004KT 9999 NSC 02/01 Q1015 NOSIG
  • 300200Z AUTO 13006KT 9999 NSC 02/02 Q1015 NOSIG

TAF TAF LFML
Valid from the 30 at 03:00 until the 01 at 09:00 UTC


300200Z 3003/0109 13005KT CAVOK TX13/3013Z TN01/3005Z
PROB30
TEMPO 3013/3017 30010KT
PROB30
TEMPO 0102/0107 3000 BR
ATIS : +33 4 42 31 15 15



MET'MAP, your aeronautical weather chart ! - Copyright ORBIFLY December 2007 - Disclaimer

ORBIFLY MET'MAP TEAM :

Programming & Development : Alexandra Zaïnal
Original concept : Baudouin d'Aumeries
Technical & hardware support : Manuel Goepfert
Assistance : Marc-Olivier Méhu




SOURCES & CREDITS :

   NOAA